createdAt,value
2024-04-19T00:01:03.250Z,13.05
2024-04-19T00:03:34.155Z,14.77
2024-04-19T00:06:07.492Z,13.07
2024-04-19T00:08:40.891Z,13.18
2024-04-19T00:11:11.515Z,12.18
2024-04-19T00:13:41.863Z,12.13
2024-04-19T00:16:13.024Z,13.13
2024-04-19T00:18:43.996Z,12.02
2024-04-19T00:21:14.619Z,11.35
2024-04-19T00:23:45.516Z,11.80
2024-04-19T00:26:18.621Z,13.52
2024-04-19T00:28:48.839Z,12.00
2024-04-19T00:31:20.018Z,11.30
2024-04-19T00:33:52.871Z,12.88
2024-04-19T00:36:23.282Z,12.10
2024-04-19T00:38:55.378Z,11.95
2024-04-19T00:41:25.687Z,11.35
2024-04-19T00:43:58.866Z,11.02
2024-04-19T00:46:30.624Z,12.45
2024-04-19T00:49:02.298Z,11.63
2024-04-19T00:51:35.301Z,12.02
2024-04-19T00:54:10.405Z,12.25
2024-04-19T00:56:40.939Z,13.38
2024-04-19T00:59:12.970Z,12.52
2024-04-19T01:01:43.224Z,13.52
2024-04-19T01:04:13.507Z,12.88
2024-04-19T01:06:43.729Z,12.93
2024-04-19T01:09:16.956Z,13.98
2024-04-19T01:11:51.181Z,12.40
2024-04-19T01:14:21.367Z,13.52
2024-04-19T01:16:51.545Z,14.40
2024-04-19T01:19:21.745Z,14.48
2024-04-19T01:21:52.063Z,12.93
2024-04-19T01:24:38.327Z,12.80
2024-04-19T01:27:14.316Z,12.13
2024-04-19T01:29:48.195Z,10.93
2024-04-19T01:32:18.552Z,11.73
2024-04-19T01:34:49.720Z,11.27
2024-04-19T01:37:20.736Z,14.95
2024-04-19T01:39:52.202Z,13.63
2024-04-19T01:42:25.895Z,11.95
2024-04-19T01:45:05.442Z,11.68
2024-04-19T01:47:35.716Z,12.27
2024-04-19T01:50:06.556Z,11.88
2024-04-19T01:52:37.280Z,11.38
2024-04-19T01:55:08.021Z,10.80
2024-04-19T01:57:38.679Z,12.90
2024-04-19T02:00:09.845Z,10.85
2024-04-19T02:02:46.196Z,10.70
2024-04-19T02:05:16.482Z,10.90
2024-04-19T02:07:46.500Z,10.40
2024-04-19T02:10:17.459Z,11.65
2024-04-19T02:12:48.481Z,11.60
2024-04-19T02:15:21.752Z,11.43
2024-04-19T02:17:52.902Z,13.05
2024-04-19T02:20:23.732Z,11.65
2024-04-19T02:22:53.966Z,12.85
2024-04-19T02:25:24.262Z,12.63
2024-04-19T02:28:13.005Z,13.43
2024-04-19T02:30:57.375Z,12.80
2024-04-19T02:33:29.296Z,13.10
2024-04-19T02:35:59.630Z,12.43
2024-04-19T02:38:31.391Z,13.38
2024-04-19T02:41:04.241Z,14.65
2024-04-19T02:43:35.348Z,12.85
2024-04-19T02:46:07.220Z,12.90
2024-04-19T02:48:37.886Z,11.82
2024-04-19T02:51:08.176Z,11.10
2024-04-19T02:53:38.385Z,10.43
2024-04-19T02:56:10.043Z,10.65
2024-04-19T02:58:42.384Z,11.60
2024-04-19T03:01:12.961Z,10.70
2024-04-19T03:03:44.276Z,11.30
2024-04-19T03:06:14.659Z,11.63
2024-04-19T03:08:45.324Z,11.30
2024-04-19T03:11:16.423Z,10.88
2024-04-19T03:13:51.725Z,9.77
2024-04-19T03:16:22.170Z,9.75
2024-04-19T03:18:55.243Z,13.43
2024-04-19T03:21:25.680Z,12.40
2024-04-19T03:23:55.990Z,12.15
2024-04-19T03:26:27.591Z,13.20
2024-04-19T03:28:58.270Z,12.63
2024-04-19T03:31:29.242Z,13.20
2024-04-19T03:34:07.284Z,13.02
2024-04-19T03:36:38.128Z,12.95
2024-04-19T03:39:11.361Z,14.00
2024-04-19T03:41:44.918Z,16.83
2024-04-19T03:44:33.817Z,13.63
2024-04-19T03:47:04.543Z,16.05
2024-04-19T03:49:35.205Z,13.05
2024-04-19T03:52:07.959Z,12.50
2024-04-19T03:54:39.460Z,11.07
2024-04-19T03:57:12.538Z,12.07
2024-04-19T03:59:45.289Z,11.90
2024-04-19T04:02:20.867Z,14.02
2024-04-19T04:05:01.323Z,13.75
2024-04-19T04:07:33.500Z,12.23
2024-04-19T04:10:05.865Z,11.32
2024-04-19T04:12:36.939Z,10.35
2024-04-19T04:15:07.722Z,9.02
2024-04-19T04:17:39.226Z,7.82
2024-04-19T04:20:10.402Z,9.52
2024-04-19T04:22:45.403Z,9.27
2024-04-19T04:25:19.688Z,17.23
2024-04-19T04:27:51.797Z,6.88
2024-04-19T04:30:22.607Z,7.75
2024-04-19T04:32:53.434Z,7.25
2024-04-19T04:35:23.826Z,6.15
2024-04-19T04:37:54.375Z,7.80
2024-04-19T04:40:24.583Z,5.78
2024-04-19T04:42:54.878Z,6.93
2024-04-19T04:45:25.785Z,6.68
2024-04-19T04:47:56.059Z,6.65
2024-04-19T04:50:26.500Z,8.10
2024-04-19T04:52:59.591Z,9.15
2024-04-19T04:55:33.462Z,5.90
2024-04-19T04:58:06.247Z,8.57
2024-04-19T05:00:37.377Z,6.43
2024-04-19T05:03:10.577Z,7.35
2024-04-19T05:05:41.381Z,7.68
2024-04-19T05:08:11.631Z,6.72
2024-04-19T05:10:42.104Z,8.93
2024-04-19T05:13:12.327Z,8.30
2024-04-19T05:15:44.345Z,10.18
2024-04-19T05:18:15.056Z,9.50
2024-04-19T05:20:47.510Z,10.52
2024-04-19T05:23:17.977Z,11.43
2024-04-19T05:25:50.953Z,8.15
2024-04-19T05:28:25.999Z,7.50
2024-04-19T05:30:56.627Z,7.57
2024-04-19T05:33:31.162Z,6.45
2024-04-19T05:36:01.725Z,7.13
2024-04-19T05:38:31.927Z,6.13
2024-04-19T05:41:02.555Z,6.00
2024-04-19T05:43:32.847Z,5.45
2024-04-19T05:46:03.420Z,5.53
2024-04-19T05:48:36.462Z,6.88
2024-04-19T05:51:07.224Z,5.82
2024-04-19T05:53:37.705Z,6.03
2024-04-19T05:56:08.347Z,5.22
2024-04-19T05:58:38.573Z,6.13
2024-04-19T06:01:10.171Z,6.05
2024-04-19T06:03:41.104Z,5.38
2024-04-19T06:06:13.236Z,5.55
2024-04-19T06:08:46.808Z,5.78
2024-04-19T06:11:17.011Z,5.60
2024-04-19T06:13:49.393Z,6.32
2024-04-19T06:16:19.851Z,6.57
2024-04-19T06:18:50.300Z,6.40
2024-04-19T06:21:20.597Z,7.18
2024-04-19T06:23:51.657Z,7.90
2024-04-19T06:26:21.866Z,6.47
2024-04-19T06:28:53.578Z,6.28
2024-04-19T06:31:25.373Z,6.82
2024-04-19T06:33:56.090Z,8.43
2024-04-19T06:36:28.393Z,12.57
2024-04-19T06:39:00.041Z,18.25
2024-04-19T06:41:32.579Z,18.08
2024-04-19T06:44:02.906Z,17.65
2024-04-19T06:46:34.324Z,13.25
2024-04-19T06:49:05.048Z,12.20
2024-04-19T06:51:37.856Z,12.27
2024-04-19T06:54:09.084Z,11.68
2024-04-19T06:56:41.013Z,16.10
2024-04-19T06:59:11.742Z,13.73
2024-04-19T07:01:42.407Z,11.73
2024-04-19T07:04:14.761Z,10.20
2024-04-19T07:06:46.549Z,9.55
2024-04-19T07:09:18.651Z,10.50
2024-04-19T07:11:49.296Z,8.95
2024-04-19T07:14:19.889Z,9.05
2024-04-19T07:16:49.934Z,7.72
2024-04-19T07:19:20.533Z,10.95
2024-04-19T07:21:51.038Z,9.27
2024-04-19T07:24:21.451Z,9.05
2024-04-19T07:26:52.965Z,7.85
2024-04-19T07:29:23.160Z,11.02
2024-04-19T07:31:53.467Z,10.50
2024-04-19T07:34:23.712Z,10.98
2024-04-19T07:36:54.703Z,11.18
2024-04-19T07:39:25.427Z,9.93
2024-04-19T07:41:57.245Z,9.00
2024-04-19T07:44:27.500Z,9.98
2024-04-19T07:47:00.761Z,9.40
2024-04-19T07:49:32.143Z,10.05
2024-04-19T07:52:02.658Z,10.70
2024-04-19T07:54:32.864Z,10.05
2024-04-19T07:57:03.691Z,10.20
2024-04-19T07:59:36.288Z,13.02
2024-04-19T08:02:08.921Z,10.98
2024-04-19T08:04:39.275Z,11.00
2024-04-19T08:07:14.768Z,10.27
2024-04-19T08:09:55.332Z,10.23
2024-04-19T08:12:26.011Z,12.07
2024-04-19T08:14:57.002Z,10.65
2024-04-19T08:17:27.283Z,13.88
2024-04-19T08:19:58.243Z,13.98
2024-04-19T08:22:28.487Z,14.60
2024-04-19T08:25:03.786Z,11.80
2024-04-19T08:27:34.056Z,9.93
2024-04-19T08:30:04.929Z,9.23
2024-04-19T08:32:35.329Z,10.02
2024-04-19T08:35:07.962Z,12.23
2024-04-19T08:37:38.227Z,9.85
2024-04-19T08:40:09.107Z,8.43
2024-04-19T08:42:43.654Z,8.25
2024-04-19T08:45:17.815Z,8.82
2024-04-19T08:47:49.007Z,8.50
2024-04-19T08:50:21.058Z,9.27
2024-04-19T08:53:09.828Z,8.38
2024-04-19T08:55:43.375Z,7.60
2024-04-19T08:58:14.386Z,7.40
2024-04-19T09:00:44.927Z,7.40
2024-04-19T09:03:21.112Z,8.48
2024-04-19T09:05:51.763Z,7.90
2024-04-19T09:08:24.458Z,7.40
2024-04-19T09:10:55.028Z,7.65
2024-04-19T09:13:25.849Z,6.85
2024-04-19T09:15:57.810Z,8.00
2024-04-19T09:18:30.087Z,7.07
2024-04-19T09:21:00.637Z,7.15
2024-04-19T09:23:31.384Z,7.80
2024-04-19T09:26:05.031Z,6.82
2024-04-19T09:28:35.631Z,7.28
2024-04-19T09:31:07.599Z,7.90
2024-04-19T09:33:40.435Z,7.82
2024-04-19T09:36:11.755Z,7.60
2024-04-19T09:38:43.805Z,14.07
2024-04-19T09:41:18.436Z,9.65
2024-04-19T09:43:51.271Z,9.75
2024-04-19T09:46:44.527Z,8.48
2024-04-19T09:49:23.205Z,7.57
2024-04-19T09:51:54.108Z,9.38
2024-04-19T09:54:31.936Z,8.80
2024-04-19T09:57:05.832Z,9.43
2024-04-19T09:59:37.917Z,8.43
2024-04-19T10:02:14.306Z,8.50
2024-04-19T10:04:51.831Z,11.25
2024-04-19T10:07:23.801Z,9.52
2024-04-19T10:09:56.846Z,11.77
2024-04-19T10:12:27.794Z,9.77
2024-04-19T10:14:58.734Z,9.85
2024-04-19T10:17:30.543Z,10.40
2024-04-19T10:20:01.694Z,9.70
2024-04-19T10:22:33.255Z,9.30
2024-04-19T10:25:04.995Z,9.35
2024-04-19T10:27:38.707Z,8.75
2024-04-19T10:30:18.539Z,9.23
2024-04-19T10:32:57.294Z,8.27
2024-04-19T10:35:28.778Z,8.68
2024-04-19T10:38:01.587Z,7.53
2024-04-19T10:40:33.407Z,7.90
2024-04-19T10:43:08.707Z,8.15
2024-04-19T10:45:40.275Z,8.30
2024-04-19T10:48:12.266Z,8.02
2024-04-19T10:50:46.378Z,9.00
2024-04-19T10:53:19.693Z,8.57
2024-04-19T10:55:50.200Z,8.18
2024-04-19T10:58:20.716Z,10.73
2024-04-19T11:00:51.327Z,10.27
2024-04-19T11:03:22.379Z,9.63
2024-04-19T11:05:53.953Z,10.27
2024-04-19T11:08:27.006Z,9.55
2024-04-19T11:10:59.679Z,9.20
2024-04-19T11:13:30.332Z,10.88
2024-04-19T11:16:01.200Z,9.93
2024-04-19T11:18:32.799Z,10.38
2024-04-19T11:21:08.523Z,11.35
2024-04-19T11:23:43.045Z,10.30
2024-04-19T11:26:19.850Z,10.40
2024-04-19T11:28:50.651Z,10.75
2024-04-19T11:31:22.886Z,9.70
2024-04-19T11:33:57.352Z,9.65
2024-04-19T11:36:31.386Z,10.20
2024-04-19T11:39:02.008Z,9.65
2024-04-19T11:41:33.401Z,10.13
2024-04-19T11:44:04.982Z,10.52
2024-04-19T11:46:35.663Z,10.07
2024-04-19T11:49:06.794Z,10.23
2024-04-19T11:51:37.782Z,10.02
2024-04-19T11:54:08.961Z,10.02
2024-04-19T11:56:42.414Z,10.20
2024-04-19T11:59:26.972Z,11.48
2024-04-19T12:01:58.381Z,11.52
2024-04-19T12:04:28.949Z,11.70
2024-04-19T12:06:59.873Z,11.75
2024-04-19T12:09:30.571Z,11.02
2024-04-19T12:15:23.386Z,11.60
2024-04-19T12:17:29.744Z,12.10
2024-04-19T12:20:07.972Z,11.35
2024-04-19T12:22:54.670Z,9.90
2024-04-19T12:25:31.131Z,10.20
2024-04-19T12:28:03.522Z,10.95
2024-04-19T12:30:34.606Z,10.32
2024-04-19T12:33:05.479Z,11.27
2024-04-19T12:35:37.625Z,10.45
2024-04-19T12:38:08.542Z,10.73
2024-04-19T12:40:41.939Z,11.23
2024-04-19T12:43:17.166Z,12.02
2024-04-19T12:45:52.354Z,11.50
2024-04-19T12:48:23.385Z,10.63
2024-04-19T12:50:53.720Z,11.20
2024-04-19T12:53:24.493Z,10.48
2024-04-19T12:55:55.172Z,10.63
2024-04-19T12:58:25.580Z,11.82
2024-04-19T13:01:05.722Z,10.20
2024-04-19T13:03:36.701Z,9.70
2024-04-19T13:06:08.834Z,19.55
2024-04-19T13:08:39.610Z,9.82
2024-04-19T13:11:10.167Z,11.50
2024-04-19T13:13:59.234Z,9.18
2024-04-19T13:16:31.980Z,9.35
2024-04-19T13:19:02.811Z,8.80
2024-04-19T13:21:34.882Z,9.15
2024-04-19T13:24:05.800Z,9.13
2024-04-19T13:26:37.216Z,9.25
2024-04-19T13:29:07.879Z,8.48
2024-04-19T13:31:38.460Z,8.80
2024-04-19T13:34:09.376Z,9.20
2024-04-19T13:36:45.533Z,8.73
2024-04-19T13:39:17.342Z,9.02
2024-04-19T13:41:47.950Z,9.27
2024-04-19T13:44:18.975Z,9.18
2024-04-19T13:46:49.793Z,8.55
2024-04-19T13:49:20.338Z,8.25
2024-04-19T13:51:50.879Z,8.15
2024-04-19T13:54:22.102Z,8.20
2024-04-19T13:56:52.684Z,7.78
2024-04-19T13:59:23.906Z,8.07
2024-04-19T14:01:55.366Z,7.38
2024-04-19T14:04:26.492Z,7.60
2024-04-19T14:06:59.975Z,10.90
2024-04-19T14:09:34.537Z,7.63
2024-04-19T14:12:10.677Z,7.65
2024-04-19T14:14:43.344Z,7.68
2024-04-19T14:17:13.643Z,7.47
2024-04-19T14:19:44.658Z,8.23
2024-04-19T14:22:17.651Z,8.30
2024-04-19T14:24:49.889Z,7.63
2024-04-19T14:27:20.621Z,8.07
2024-04-19T14:29:51.380Z,8.15
2024-04-19T14:32:21.763Z,8.10
2024-04-19T14:34:52.017Z,7.40
2024-04-19T14:37:25.381Z,7.55
2024-04-19T14:39:56.753Z,7.43
2024-04-19T14:42:28.390Z,7.93
2024-04-19T14:44:59.111Z,7.25
2024-04-19T14:47:29.416Z,8.02
2024-04-19T14:49:59.832Z,7.30
2024-04-19T14:52:31.259Z,7.55
2024-04-19T14:55:02.296Z,8.35
2024-04-19T14:57:32.546Z,7.82
2024-04-19T15:00:02.456Z,8.00
2024-04-19T15:02:34.400Z,7.75
2024-04-19T15:05:05.269Z,8.20
2024-04-19T15:07:39.591Z,8.60
2024-04-19T15:10:11.009Z,8.07
2024-04-19T15:12:41.246Z,9.13
2024-04-19T15:15:13.673Z,8.48
2024-04-19T15:17:45.184Z,8.93
2024-04-19T15:20:17.531Z,9.02
2024-04-19T15:22:47.781Z,9.18
2024-04-19T15:25:18.310Z,8.73
2024-04-19T15:27:48.634Z,8.85
2024-04-19T15:30:22.426Z,8.73
2024-04-19T15:32:56.163Z,9.30
2024-04-19T15:35:29.911Z,9.05
2024-04-19T15:38:00.904Z,9.18
2024-04-19T15:40:31.209Z,9.20
2024-04-19T15:43:02.314Z,9.27
2024-04-19T15:45:35.281Z,8.98
2024-04-19T15:48:05.704Z,8.52
2024-04-19T15:50:40.020Z,8.55
2024-04-19T15:53:11.025Z,8.55
2024-04-19T15:55:45.007Z,8.30
2024-04-19T15:58:15.945Z,8.27
2024-04-19T16:00:46.397Z,14.13
2024-04-19T16:03:17.971Z,8.77
2024-04-19T16:05:48.352Z,8.40
2024-04-19T16:08:20.784Z,7.88
2024-04-19T16:10:51.628Z,8.18
2024-04-19T16:13:22.004Z,7.90
2024-04-19T16:16:11.380Z,8.45
2024-04-19T16:18:43.079Z,8.02
2024-04-19T16:21:14.431Z,8.23
2024-04-19T16:23:46.239Z,8.23
2024-04-19T16:26:17.243Z,7.70
2024-04-19T16:28:47.505Z,7.93
2024-04-19T16:31:18.212Z,9.13
2024-04-19T16:33:48.700Z,8.35
2024-04-19T16:36:18.925Z,8.63
2024-04-19T16:38:49.058Z,8.80
2024-04-19T16:41:22.567Z,8.85
2024-04-19T16:43:53.099Z,9.55
2024-04-19T16:46:23.258Z,10.18
2024-04-19T16:48:53.430Z,10.48
2024-04-19T16:51:24.628Z,11.13
2024-04-19T16:53:56.047Z,10.90
2024-04-19T16:56:26.293Z,10.57
2024-04-19T16:58:56.389Z,10.80
2024-04-19T17:01:26.694Z,10.45
2024-04-19T17:03:57.190Z,11.45
2024-04-19T17:06:27.341Z,11.07
2024-04-19T17:08:57.565Z,11.88
2024-04-19T17:11:27.639Z,11.93
2024-04-19T17:13:57.470Z,11.93
2024-04-19T17:16:27.709Z,12.55
2024-04-19T17:18:58.599Z,12.27
2024-04-19T17:21:29.129Z,11.90
2024-04-19T17:23:59.356Z,12.13
2024-04-19T17:26:30.616Z,12.80
2024-04-19T17:29:01.694Z,11.65
2024-04-19T17:31:31.762Z,12.35
2024-04-19T17:34:04.592Z,12.18
2024-04-19T17:36:35.006Z,12.13
2024-04-19T17:39:05.632Z,11.50
2024-04-19T17:41:38.674Z,11.20
2024-04-19T17:44:08.773Z,10.98
2024-04-19T17:46:42.391Z,9.40
2024-04-19T17:49:12.476Z,10.07
2024-04-19T17:51:43.399Z,9.77
2024-04-19T17:54:20.691Z,8.93
2024-04-19T17:56:50.808Z,8.68
2024-04-19T17:59:20.884Z,9.43
2024-04-19T18:01:51.120Z,8.18
2024-04-19T18:04:28.674Z,7.97
2024-04-19T18:07:07.073Z,7.95
2024-04-19T18:09:53.250Z,7.75
2024-04-19T18:12:40.800Z,7.28
2024-04-19T18:15:14.517Z,7.55
2024-04-19T18:17:51.215Z,7.38
2024-04-19T18:20:36.258Z,7.20
2024-04-19T18:23:20.013Z,8.02
2024-04-19T18:25:55.488Z,7.75
2024-04-19T18:28:37.764Z,7.65
2024-04-19T18:31:15.521Z,6.85
2024-04-19T18:33:50.118Z,6.00
2024-04-19T18:36:29.471Z,5.40
2024-04-19T18:39:12.460Z,5.35
2024-04-19T18:41:47.591Z,5.40
2024-04-19T18:44:28.564Z,5.35
2024-04-19T18:47:07.554Z,5.03
2024-04-19T18:49:48.914Z,5.13
2024-04-19T18:52:24.520Z,4.97
2024-04-19T18:55:02.558Z,5.00
2024-04-19T18:57:42.094Z,5.60
2024-04-19T19:00:17.563Z,5.13
2024-04-19T19:02:56.572Z,5.25
2024-04-19T19:05:33.035Z,5.35
2024-04-19T19:08:12.372Z,5.78
2024-04-19T19:10:46.296Z,5.38
2024-04-19T19:13:19.071Z,4.75
2024-04-19T19:16:02.962Z,4.93
2024-04-19T19:18:41.677Z,5.50
2024-04-19T19:21:18.571Z,4.68
2024-04-19T19:23:57.656Z,4.85
2024-04-19T19:26:30.797Z,4.43
2024-04-19T19:29:09.166Z,4.40
2024-04-19T19:31:43.203Z,4.60
2024-04-19T19:34:15.749Z,4.22
2024-04-19T19:36:55.588Z,4.35
2024-04-19T19:39:32.479Z,4.70
2024-04-19T19:42:06.133Z,5.60
2024-04-19T19:44:39.285Z,5.13
2024-04-19T19:47:12.240Z,5.43
2024-04-19T19:49:47.612Z,4.55
2024-04-19T19:52:26.696Z,4.85
2024-04-19T19:55:00.660Z,4.93
2024-04-19T19:57:33.020Z,4.40
2024-04-19T20:00:24.502Z,5.10
2024-04-19T20:03:29.232Z,4.45
2024-04-19T20:06:04.992Z,4.88
2024-04-19T20:08:39.633Z,5.30
2024-04-19T20:11:12.877Z,6.25
2024-04-19T20:13:45.530Z,6.45
2024-04-19T20:16:21.765Z,6.18
2024-04-19T20:18:54.507Z,5.70
2024-04-19T20:21:27.515Z,5.97
2024-04-19T20:24:05.909Z,5.63
2024-04-19T20:26:43.532Z,5.53
2024-04-19T20:29:20.088Z,5.82
2024-04-19T20:31:59.180Z,5.93
2024-04-19T20:34:34.802Z,5.80
2024-04-19T20:37:09.833Z,5.95
2024-04-19T20:39:42.761Z,6.00
2024-04-19T20:42:20.625Z,8.32
2024-04-19T20:44:57.560Z,6.88
2024-04-19T20:47:34.448Z,6.30
2024-04-19T20:50:16.200Z,6.50
2024-04-19T20:52:50.813Z,6.07
2024-04-19T20:55:27.345Z,6.88
2024-04-19T20:58:00.232Z,6.43
2024-04-19T21:00:42.070Z,6.35
2024-04-19T21:03:15.082Z,6.47
2024-04-19T21:05:51.682Z,6.63
2024-04-19T21:08:24.286Z,6.10
2024-04-19T21:10:56.435Z,7.35
2024-04-19T21:13:32.207Z,7.35
2024-04-19T21:16:13.907Z,6.90
2024-04-19T21:18:48.934Z,7.45
2024-04-19T21:21:23.598Z,7.78
2024-04-19T21:23:59.842Z,7.32
2024-04-19T21:26:35.427Z,7.35
2024-04-19T21:29:07.842Z,7.13
2024-04-19T21:31:40.940Z,7.50
2024-04-19T21:34:13.396Z,8.70
2024-04-19T21:36:48.747Z,9.35
2024-04-19T21:39:22.443Z,8.68
2024-04-19T21:41:58.242Z,9.52
2024-04-19T21:44:36.781Z,9.38
2024-04-19T21:47:11.606Z,9.30
2024-04-19T21:49:45.329Z,9.80
2024-04-19T21:52:20.537Z,9.85
2024-04-19T21:54:55.304Z,9.93
2024-04-19T21:57:37.285Z,11.63
2024-04-19T22:00:10.207Z,11.02
2024-04-19T22:02:42.680Z,12.27
2024-04-19T22:05:16.658Z,12.48
2024-04-19T22:07:49.277Z,12.50
2024-04-19T22:10:25.100Z,12.55
2024-04-19T22:13:14.396Z,12.13
2024-04-19T22:15:53.150Z,12.95
2024-04-19T22:18:25.927Z,11.75
2024-04-19T22:21:12.480Z,12.88
2024-04-19T22:23:45.045Z,12.23
2024-04-19T22:26:18.965Z,11.32
2024-04-19T22:28:53.286Z,10.38
2024-04-19T22:31:28.994Z,10.90
2024-04-19T22:34:08.096Z,10.55
2024-04-19T22:36:44.078Z,11.45
2024-04-19T22:39:17.313Z,11.60
2024-04-19T22:41:49.802Z,8.88
2024-04-19T22:44:22.264Z,8.73
2024-04-19T22:46:54.883Z,9.20
2024-04-19T22:49:27.550Z,8.77
2024-04-19T22:52:09.374Z,8.38
2024-04-19T22:54:45.558Z,8.45
2024-04-19T22:57:18.193Z,12.48
2024-04-19T22:59:51.347Z,8.02
2024-04-19T23:02:23.998Z,8.15
2024-04-19T23:05:00.678Z,8.35
2024-04-19T23:07:37.031Z,8.93
2024-04-19T23:10:12.967Z,7.50
2024-04-19T23:12:52.189Z,7.70
2024-04-19T23:15:31.338Z,7.38
2024-04-19T23:18:08.599Z,6.90
2024-04-19T23:20:41.630Z,6.72
2024-04-19T23:23:17.231Z,6.05
2024-04-19T23:26:08.471Z,7.63
2024-04-19T23:28:42.273Z,6.55
2024-04-19T23:31:19.880Z,6.70
2024-04-19T23:33:53.062Z,6.20
2024-04-19T23:36:25.899Z,7.78
2024-04-19T23:39:00.213Z,7.03
2024-04-19T23:41:33.351Z,7.03
2024-04-19T23:44:07.076Z,8.00
2024-04-19T23:46:39.974Z,7.18
2024-04-19T23:52:03.521Z,7.82
2024-04-19T23:54:39.729Z,8.30
2024-04-19T23:57:13.942Z,24.25
2024-04-19T23:59:50.648Z,7.15
